Pelkie, Michigan
Current Conditions -  °F | °C
As of 11:53 AM on Thursday 30 Oct 2014 (Local Time) from KCMX Reporting Station
Light Rain Light Rain  
Wind Chill: 34°   Ceiling: 600
Heat Index: 40°   Visibility: 10mi
Dew Point: 37°   Wind: 8mph
Humidity: 89%   Direction: 260°W
Pressure: 30.01"   Gusts: NA
Location:  46.81°N, 88.64°W
Report Text: KCMX 301553Z AUTO 26007KT 10SM -RA OVC006 04/03 A3001 RMK AO2 SLP170 P0001 T00440028
Loading
Personal Weather Stations






























Interactive Weather Map
Tropical Storm Tracking
New forecast layout! Learn more

10-Day Weather Forecast

Advertisements
Track Severe Weather on mobile